Time;durP1;ratioP1;P1;durP2;ratioP2;P2;SDS_P1;SDS_P2;PMS_P1;PMS_P2;Temp;Humidity;BMP_temperature;BMP_pressure;BME280_temperature;BME280_humidity;BME280_pressure;Samples;Min_cycle;Max_cycle;Signal;HPM_P1;HPM_P2
2023/12/28 00:00:31;;;;;;;5.22;4.15;;;5.90;99.90;;;;;;493171;241;27425;-68
2023/12/28 00:02:32;;;;;;;5.80;3.70;;;5.90;99.90;;;;;;493188;241;27466;-69
2023/12/28 00:04:34;;;;;;;4.22;3.83;;;6.00;99.90;;;;;;493099;241;27830;-68
2023/12/28 00:06:35;;;;;;;5.25;3.87;;;6.00;99.90;;;;;;493171;241;27874;-68
2023/12/28 00:08:36;;;;;;;4.30;3.72;;;6.00;99.90;;;;;;493196;241;27409;-69
2023/12/28 00:10:37;;;;;;;3.92;3.35;;;5.90;99.90;;;;;;493140;241;27438;-68
2023/12/28 00:12:39;;;;;;;6.30;3.70;;;6.00;99.90;;;;;;493186;241;27427;-68
2023/12/28 00:14:40;;;;;;;5.35;3.40;;;6.00;99.90;;;;;;493142;241;27389;-68
2023/12/28 00:16:41;;;;;;;5.20;3.33;;;6.00;99.90;;;;;;493035;241;27503;-66
2023/12/28 00:18:42;;;;;;;3.67;3.37;;;6.00;99.90;;;;;;492743;236;27894;-69
2023/12/28 00:20:44;;;;;;;4.07;3.40;;;6.00;99.90;;;;;;492936;241;27845;-68
2023/12/28 00:22:45;;;;;;;5.82;4.20;;;6.00;99.90;;;;;;493112;241;27453;-68
2023/12/28 00:24:46;;;;;;;5.50;3.90;;;6.10;99.90;;;;;;493050;241;27465;-67
2023/12/28 00:26:47;;;;;;;4.37;3.92;;;6.10;99.90;;;;;;493186;241;27469;-67
2023/12/28 00:28:49;;;;;;;4.55;3.90;;;6.20;99.90;;;;;;492404;241;27518;-67
2023/12/28 00:30:50;;;;;;;4.35;3.95;;;6.10;99.90;;;;;;491306;242;27480;-67
2023/12/28 00:32:51;;;;;;;4.37;3.90;;;6.20;99.90;;;;;;491500;242;27589;-68
2023/12/28 00:34:52;;;;;;;5.37;4.15;;;6.10;99.90;;;;;;491394;242;28075;-68
2023/12/28 00:36:54;;;;;;;5.20;3.90;;;6.20;99.90;;;;;;491512;242;28025;-68
2023/12/28 00:38:55;;;;;;;4.35;3.90;;;6.30;99.90;;;;;;491509;242;27594;-68
2023/12/28 00:40:56;;;;;;;5.78;3.95;;;6.40;99.90;;;;;;491510;242;27491;-68
2023/12/28 00:42:58;;;;;;;4.78;3.90;;;6.50;99.90;;;;;;491507;242;27522;-67
2023/12/28 00:44:59;;;;;;;6.93;4.55;;;6.60;99.90;;;;;;491471;242;27443;-69
2023/12/28 00:47:00;;;;;;;5.53;4.12;;;6.60;99.90;;;;;;491471;242;27464;-68
2023/12/28 00:49:01;;;;;;;6.93;4.30;;;6.60;99.90;;;;;;491513;242;27970;-67
2023/12/28 00:51:03;;;;;;;5.85;4.32;;;6.50;99.90;;;;;;491438;242;27604;-68
2023/12/28 00:53:04;;;;;;;8.10;4.47;;;6.50;99.90;;;;;;491505;242;27483;-68
2023/12/28 00:55:05;;;;;;;6.00;4.53;;;6.60;99.90;;;;;;491369;242;27419;-69
2023/12/28 00:57:06;;;;;;;8.10;4.60;;;6.70;99.90;;;;;;491494;242;27566;-68
2023/12/28 00:59:08;;;;;;;6.60;3.95;;;6.70;99.90;;;;;;491498;242;27424;-68
2023/12/28 01:01:09;;;;;;;5.68;4.28;;;6.80;99.90;;;;;;491485;242;28461;-67
2023/12/28 01:03:10;;;;;;;6.85;4.68;;;6.80;99.90;;;;;;491473;242;27846;-68
2023/12/28 01:05:11;;;;;;;4.32;3.85;;;6.80;99.90;;;;;;491513;242;27403;-68
2023/12/28 01:07:13;;;;;;;4.97;4.30;;;6.90;99.90;;;;;;491495;242;27375;-68
2023/12/28 01:09:14;;;;;;;4.22;3.83;;;7.00;99.90;;;;;;491484;242;27455;-68
2023/12/28 01:11:15;;;;;;;4.93;4.18;;;7.00;99.90;;;;;;490718;242;27589;-69
2023/12/28 01:13:17;;;;;;;5.03;4.03;;;7.00;99.90;;;;;;482848;245;27497;-69
2023/12/28 01:15:20;;;;;;;4.27;3.83;;;7.10;99.90;;;;;;483835;245;29263;-68
2023/12/28 01:17:19;;;;;;;6.57;4.20;;;7.20;99.90;;;;;;485823;245;28613;-68
2023/12/28 01:19:21;;;;;;;5.70;3.95;;;7.20;99.90;;;;;;485957;245;29131;-68
2023/12/28 01:21:21;;;;;;;5.43;3.93;;;7.30;99.90;;;;;;485868;245;28008;-69
2023/12/28 01:23:23;;;;;;;4.20;3.80;;;7.30;99.90;;;;;;485930;245;27390;-68
2023/12/28 01:25:24;;;;;;;6.90;4.05;;;7.40;99.90;;;;;;485300;245;28877;-68
2023/12/28 01:27:25;;;;;;;6.07;4.07;;;7.40;99.90;;;;;;485967;245;27393;-67
2023/12/28 01:29:26;;;;;;;5.70;3.70;;;7.40;99.90;;;;;;485930;245;28663;-68
2023/12/28 01:31:28;;;;;;;4.67;3.83;;;7.50;99.90;;;;;;485893;245;27545;-69
2023/12/28 01:33:29;;;;;;;6.77;3.63;;;7.50;99.90;;;;;;485932;245;28145;-67
2023/12/28 01:35:30;;;;;;;3.60;3.30;;;7.50;99.90;;;;;;485862;245;28065;-67
2023/12/28 01:37:33;;;;;;;5.07;3.63;;;7.50;99.90;;;;;;485956;245;27842;-67
2023/12/28 01:39:33;;;;;;;4.63;3.90;;;7.60;99.90;;;;;;485825;245;27511;-68
2023/12/28 01:41:34;;;;;;;6.73;3.40;;;7.60;99.90;;;;;;485794;245;27673;-68
2023/12/28 01:43:35;;;;;;;3.93;3.23;;;7.70;99.90;;;;;;485840;245;29295;-68
2023/12/28 01:45:36;;;;;;;5.43;3.50;;;7.70;99.90;;;;;;485965;245;28317;-68
2023/12/28 01:47:38;;;;;;;5.67;3.80;;;7.80;99.90;;;;;;485949;245;29991;-68
2023/12/28 01:49:39;;;;;;;4.63;3.50;;;7.80;99.90;;;;;;485978;245;28281;-68
2023/12/28 01:51:40;;;;;;;4.50;3.80;;;7.70;99.90;;;;;;485949;245;29206;-68
2023/12/28 01:53:41;;;;;;;5.10;3.50;;;7.70;99.90;;;;;;485883;245;28891;-67
2023/12/28 01:55:43;;;;;;;3.43;3.10;;;7.70;99.90;;;;;;485891;245;27979;-67
2023/12/28 01:57:44;;;;;;;3.70;3.27;;;7.60;99.90;;;;;;481882;239;28815;-68
2023/12/28 01:59:45;;;;;;;4.20;3.80;;;7.60;99.90;;;;;;476217;250;28034;-67
2023/12/28 02:01:47;;;;;;;6.80;3.67;;;7.60;99.90;;;;;;476179;250;27886;-68
2023/12/28 02:03:48;;;;;;;6.70;4.00;;;7.60;99.90;;;;;;476179;250;27523;-67
2023/12/28 02:05:49;;;;;;;4.50;3.43;;;7.60;99.90;;;;;;476233;250;28156;-67
2023/12/28 02:07:50;;;;;;;5.73;3.97;;;7.60;99.90;;;;;;484149;234;27766;-69
2023/12/28 02:09:51;;;;;;;6.23;3.60;;;7.60;99.90;;;;;;493215;241;27691;-67
2023/12/28 02:11:53;;;;;;;5.17;3.60;;;7.50;99.90;;;;;;493204;241;27962;-68
2023/12/28 02:13:54;;;;;;;7.30;4.93;;;7.50;99.90;;;;;;493103;241;27940;-67
2023/12/28 02:15:55;;;;;;;5.37;3.93;;;7.40;99.90;;;;;;493242;241;27490;-67
2023/12/28 02:17:56;;;;;;;4.00;3.60;;;7.40;99.90;;;;;;493239;241;28734;-67
2023/12/28 02:19:58;;;;;;;5.30;3.20;;;7.30;99.90;;;;;;493217;241;27917;-67
2023/12/28 02:21:59;;;;;;;6.10;3.73;;;7.30;99.90;;;;;;493217;241;27928;-67
2023/12/28 02:24:00;;;;;;;3.70;3.40;;;7.20;99.90;;;;;;493178;241;28329;-67
2023/12/28 02:26:02;;;;;;;4.40;4.00;;;7.10;99.90;;;;;;492563;241;28352;-67
2023/12/28 02:28:03;;;;;;;8.30;4.23;;;7.10;99.90;;;;;;492940;237;28415;-67
2023/12/28 02:30:04;;;;;;;5.00;3.53;;;7.10;99.90;;;;;;492217;241;29308;-67
2023/12/28 02:32:05;;;;;;;5.43;3.73;;;7.00;99.90;;;;;;492400;241;28794;-68
2023/12/28 02:34:06;;;;;;;6.00;4.23;;;7.10;99.90;;;;;;491915;241;29761;-69
2023/12/28 02:36:08;;;;;;;6.17;3.80;;;7.00;99.90;;;;;;492673;241;27802;-68
2023/12/28 02:38:09;;;;;;;6.05;3.65;;;7.10;99.90;;;;;;492778;241;27721;-68
2023/12/28 02:40:10;;;;;;;7.97;4.77;;;7.00;99.90;;;;;;492827;241;27462;-67
2023/12/28 02:42:12;;;;;;;4.87;3.60;;;7.00;99.90;;;;;;492815;241;27954;-68
2023/12/28 02:44:13;;;;;;;4.50;3.40;;;7.00;99.90;;;;;;492782;241;27514;-68
2023/12/28 02:46:14;;;;;;;5.12;4.12;;;7.00;99.90;;;;;;492858;241;27624;-67
2023/12/28 02:48:15;;;;;;;4.30;3.55;;;7.00;99.90;;;;;;492735;241;27531;-67
2023/12/28 02:50:17;;;;;;;4.50;4.10;;;6.90;99.90;;;;;;492630;241;28012;-67
2023/12/28 02:52:18;;;;;;;7.65;4.03;;;6.90;99.90;;;;;;492083;241;28379;-67
2023/12/28 02:54:19;;;;;;;6.47;3.90;;;6.90;99.90;;;;;;492087;241;27594;-69
2023/12/28 02:56:20;;;;;;;4.30;3.70;;;6.90;99.90;;;;;;492581;241;27491;-67
2023/12/28 02:58:22;;;;;;;6.03;3.78;;;6.90;99.90;;;;;;492533;241;27508;-67
2023/12/28 03:00:23;;;;;;;7.63;4.30;;;6.90;99.90;;;;;;492843;241;27635;-68
2023/12/28 03:02:24;;;;;;;6.50;3.90;;;6.90;99.90;;;;;;492796;241;27890;-67
2023/12/28 03:04:25;;;;;;;6.40;4.37;;;6.80;99.90;;;;;;492806;241;27709;-68
2023/12/28 03:06:27;;;;;;;6.32;4.40;;;6.80;99.90;;;;;;492828;241;28821;-67
2023/12/28 03:08:28;;;;;;;5.37;3.83;;;6.80;99.90;;;;;;488110;241;27411;-68
2023/12/28 03:10:29;;;;;;;4.82;4.20;;;6.80;99.90;;;;;;488302;243;27408;-68
2023/12/28 03:12:30;;;;;;;7.35;4.70;;;6.70;99.90;;;;;;488281;243;27884;-68
2023/12/28 03:14:32;;;;;;;6.03;4.55;;;6.80;99.90;;;;;;488277;243;27970;-68
2023/12/28 03:16:33;;;;;;;6.25;4.47;;;6.70;99.90;;;;;;488316;243;27372;-67
2023/12/28 03:18:34;;;;;;;7.12;4.60;;;6.80;99.90;;;;;;488313;243;27453;-67
2023/12/28 03:20:35;;;;;;;4.93;4.40;;;6.70;99.90;;;;;;488300;243;27480;-68
2023/12/28 03:22:37;;;;;;;7.60;4.90;;;6.80;99.90;;;;;;488332;243;27474;-68
2023/12/28 03:24:38;;;;;;;8.98;4.80;;;6.80;99.90;;;;;;488066;243;28827;-67
2023/12/28 03:26:39;;;;;;;5.50;4.32;;;6.70;99.90;;;;;;487660;243;28458;-69
2023/12/28 03:28:40;;;;;;;4.53;4.03;;;6.70;99.90;;;;;;478891;242;27840;-68
2023/12/28 03:30:42;;;;;;;8.13;4.47;;;6.80;99.90;;;;;;478614;247;27470;-68
2023/12/28 03:32:43;;;;;;;4.43;4.03;;;6.80;99.90;;;;;;478631;247;27463;-67
2023/12/28 03:34:44;;;;;;;4.20;3.80;;;6.80;99.90;;;;;;478541;246;27435;-68
2023/12/28 03:36:46;;;;;;;4.70;4.30;;;6.70;99.90;;;;;;478661;247;27454;-69
2023/12/28 03:38:47;;;;;;;6.22;4.68;;;6.80;99.90;;;;;;478670;248;27871;-68
2023/12/28 03:40:50;;;;;;;7.70;4.90;;;6.70;99.90;;;;;;478677;247;27423;-67
2023/12/28 03:42:49;;;;;;;5.05;4.55;;;6.80;99.90;;;;;;478629;248;27424;-67
2023/12/28 03:44:51;;;;;;;8.88;4.55;;;6.80;99.90;;;;;;478676;247;27531;-68
2023/12/28 03:46:52;;;;;;;4.65;4.25;;;6.80;99.90;;;;;;478701;247;27514;-67
2023/12/28 03:48:53;;;;;;;6.93;4.60;;;6.80;99.90;;;;;;478710;247;27867;-67
2023/12/28 03:50:54;;;;;;;6.43;4.90;;;6.80;99.90;;;;;;478709;247;27902;-67
2023/12/28 03:52:56;;;;;;;8.82;5.45;;;6.80;99.90;;;;;;478737;247;27541;-68
2023/12/28 03:54:57;;;;;;;5.97;4.70;;;6.80;99.90;;;;;;478643;247;27420;-67
2023/12/28 03:56:58;;;;;;;6.20;3.90;;;6.80;99.90;;;;;;478629;247;27510;-68
2023/12/28 03:58:59;;;;;;;6.83;4.60;;;6.80;99.90;;;;;;478696;247;27639;-67
2023/12/28 04:01:01;;;;;;;7.87;4.63;;;6.90;99.90;;;;;;478658;247;28783;-68
2023/12/28 04:03:02;;;;;;;4.90;4.27;;;6.90;99.90;;;;;;478691;247;28678;-68
2023/12/28 04:05:04;;;;;;;8.25;4.53;;;6.80;99.90;;;;;;478572;248;28752;-67
2023/12/28 04:07:07;;;;;;;5.30;4.80;;;6.80;99.90;;;;;;478685;245;27984;-69
2023/12/28 04:09:06;;;;;;;5.15;4.65;;;6.90;99.90;;;;;;478570;248;29262;-68
2023/12/28 04:11:07;;;;;;;9.33;4.67;;;6.90;99.90;;;;;;478662;247;27400;-68
2023/12/28 04:13:08;;;;;;;6.53;4.47;;;6.90;99.90;;;;;;478615;247;27789;-67
2023/12/28 04:15:09;;;;;;;4.90;4.40;;;6.90;99.90;;;;;;478596;247;27390;-67
2023/12/28 04:17:11;;;;;;;8.00;5.15;;;6.90;99.90;;;;;;478663;248;28781;-68
2023/12/28 04:19:12;;;;;;;6.68;4.72;;;6.90;99.90;;;;;;478680;247;27422;-69
2023/12/28 04:21:13;;;;;;;8.50;4.53;;;6.90;99.90;;;;;;478683;247;27411;-68
2023/12/28 04:23:14;;;;;;;5.68;4.43;;;6.90;99.90;;;;;;478567;247;27880;-68
2023/12/28 04:25:19;;;;;;;5.03;4.53;;;6.90;99.90;;;;;;478535;247;27929;-67
2023/12/28 04:27:20;;;;;;;7.93;4.87;;;7.00;99.90;;;;;;478550;247;27395;-67
2023/12/28 04:29:21;;;;;;;7.23;4.77;;;7.00;99.90;;;;;;479427;247;28170;-68
2023/12/28 04:31:22;;;;;;;6.82;4.68;;;6.90;99.90;;;;;;480491;247;29335;-68
2023/12/28 04:33:24;;;;;;;5.90;4.70;;;6.90;99.90;;;;;;480467;247;27496;-67
2023/12/28 04:35:25;;;;;;;6.75;4.65;;;7.00;99.90;;;;;;480497;247;27542;-67
2023/12/28 04:37:27;;;;;;;5.10;4.17;;;7.00;99.90;;;;;;480548;247;27540;-68
2023/12/28 04:39:27;;;;;;;7.10;4.97;;;7.00;99.90;;;;;;480512;247;28545;-67
2023/12/28 04:41:29;;;;;;;6.80;4.73;;;7.00;99.90;;;;;;480513;247;27777;-68
2023/12/28 04:43:30;;;;;;;6.33;4.50;;;7.00;99.90;;;;;;480426;247;29043;-67
2023/12/28 04:45:31;;;;;;;5.87;5.12;;;7.00;99.90;;;;;;480530;247;27863;-68
2023/12/28 04:47:32;;;;;;;5.40;4.90;;;7.00;99.90;;;;;;480519;247;27567;-69
2023/12/28 04:49:34;;;;;;;4.70;4.20;;;7.00;99.90;;;;;;480515;247;27956;-68
2023/12/28 04:51:35;;;;;;;8.20;4.37;;;7.00;99.90;;;;;;480516;247;28028;-68
2023/12/28 04:53:36;;;;;;;4.87;4.37;;;7.00;99.90;;;;;;480472;247;27622;-68
2023/12/28 04:55:38;;;;;;;3.97;3.62;;;7.10;99.90;;;;;;480481;247;27521;-67
2023/12/28 04:57:39;;;;;;;4.23;3.83;;;7.10;99.90;;;;;;475637;247;27570;-69
2023/12/28 04:59:40;;;;;;;6.55;4.90;;;7.10;99.90;;;;;;468562;250;28846;-67
2023/12/28 05:01:41;;;;;;;4.80;4.20;;;7.10;99.90;;;;;;463571;249;27411;-67
2023/12/28 05:03:43;;;;;;;5.00;4.00;;;7.10;99.90;;;;;;468642;253;27991;-67
2023/12/28 05:05:44;;;;;;;5.00;4.30;;;7.10;99.90;;;;;;468703;254;28048;-67
2023/12/28 05:07:45;;;;;;;5.70;3.92;;;7.20;99.90;;;;;;468713;254;27965;-68
2023/12/28 05:09:46;;;;;;;4.77;4.27;;;7.20;99.90;;;;;;468573;252;27521;-67
2023/12/28 05:11:48;;;;;;;6.62;4.00;;;7.20;99.90;;;;;;468553;254;28440;-68
2023/12/28 05:13:49;;;;;;;9.20;4.47;;;7.20;99.90;;;;;;468592;254;27489;-68
2023/12/28 05:15:50;;;;;;;5.43;4.00;;;7.20;99.90;;;;;;468696;254;27898;-67
2023/12/28 05:17:51;;;;;;;4.30;3.90;;;7.20;99.90;;;;;;468716;254;28539;-68
2023/12/28 05:19:53;;;;;;;5.80;4.10;;;7.20;99.90;;;;;;468718;254;29406;-67
2023/12/28 05:21:54;;;;;;;4.15;3.75;;;7.20;99.90;;;;;;468700;254;27936;-67
2023/12/28 05:23:55;;;;;;;4.77;3.60;;;7.20;99.90;;;;;;468316;254;27558;-68
2023/12/28 05:25:56;;;;;;;5.70;4.40;;;7.20;99.90;;;;;;468322;254;27664;-67
2023/12/28 05:27:58;;;;;;;4.17;3.87;;;7.30;99.90;;;;;;468713;254;29002;-69
2023/12/28 05:29:59;;;;;;;4.43;4.03;;;7.30;99.90;;;;;;468715;254;27938;-67
2023/12/28 05:32:00;;;;;;;4.73;4.23;;;7.30;99.90;;;;;;468118;254;27948;-67
2023/12/28 05:34:02;;;;;;;5.33;4.07;;;7.30;99.90;;;;;;468609;254;27498;-68
2023/12/28 05:36:03;;;;;;;4.80;3.83;;;7.30;99.90;;;;;;468698;254;27825;-67
2023/12/28 05:38:04;;;;;;;4.30;3.90;;;7.30;99.90;;;;;;468680;254;28706;-67
2023/12/28 05:40:05;;;;;;;10.73;4.60;;;7.30;99.90;;;;;;468683;254;27970;-69
2023/12/28 05:42:06;;;;;;;5.93;4.50;;;7.30;99.90;;;;;;468681;254;28396;-67
2023/12/28 05:44:08;;;;;;;4.82;4.32;;;7.30;99.90;;;;;;468661;254;28622;-67
2023/12/28 05:46:09;;;;;;;6.77;4.40;;;7.30;99.90;;;;;;468687;254;27523;-67
2023/12/28 05:48:10;;;;;;;7.90;4.53;;;7.30;99.90;;;;;;468656;254;27855;-68
2023/12/28 05:50:12;;;;;;;6.43;4.53;;;7.30;99.90;;;;;;468647;254;28295;-69
2023/12/28 05:52:15;;;;;;;7.40;4.50;;;7.30;99.90;;;;;;468668;254;28398;-68
2023/12/28 05:54:14;;;;;;;6.47;4.73;;;7.20;99.90;;;;;;468523;249;28883;-67
2023/12/28 05:56:15;;;;;;;5.13;4.60;;;7.30;99.90;;;;;;468565;254;28910;-67
2023/12/28 05:58:16;;;;;;;6.90;4.47;;;7.30;99.90;;;;;;472835;241;28060;-68
2023/12/28 06:00:18;;;;;;;8.10;5.30;;;7.30;99.90;;;;;;472062;248;28062;-68
2023/12/28 06:02:19;;;;;;;6.50;5.20;;;7.30;99.90;;;;;;475583;248;28297;-68
2023/12/28 06:04:20;;;;;;;7.80;5.00;;;7.40;99.90;;;;;;475595;249;27533;-68
2023/12/28 06:06:22;;;;;;;11.93;5.00;;;7.40;99.90;;;;;;475680;249;27884;-69
2023/12/28 06:08:24;;;;;;;5.20;4.70;;;7.40;99.90;;;;;;480451;241;28906;-66
2023/12/28 06:10:24;;;;;;;6.87;5.63;;;7.40;99.90;;;;;;491255;240;28815;-68
2023/12/28 06:12:25;;;;;;;6.50;4.40;;;7.40;99.90;;;;;;490692;242;27905;-67
2023/12/28 06:14:29;;;;;;;7.87;4.63;;;7.40;99.90;;;;;;486238;243;28368;-67
2023/12/28 06:16:32;;;;;;;10.53;5.20;;;7.40;99.90;;;;;;490422;242;28301;-66
2023/12/28 06:18:32;;;;;;;6.33;5.03;;;7.40;99.90;;;;;;481630;236;28719;-67
2023/12/28 06:20:31;;;;;;;7.57;5.00;;;7.40;99.90;;;;;;478150;248;27928;-67
2023/12/28 06:22:32;;;;;;;8.47;4.40;;;7.40;99.90;;;;;;461712;257;28991;-69
2023/12/28 06:24:33;;;;;;;6.80;4.90;;;7.40;99.90;;;;;;478389;248;28892;-70
2023/12/28 06:26:34;;;;;;;6.60;4.70;;;7.40;99.90;;;;;;461751;257;28086;-68
2023/12/28 06:28:36;;;;;;;5.27;4.83;;;7.40;99.90;;;;;;481659;238;27734;-68
2023/12/28 06:30:37;;;;;;;7.93;5.77;;;7.40;99.90;;;;;;479577;246;28055;-67
2023/12/28 06:32:39;;;;;;;7.33;5.40;;;7.40;99.90;;;;;;474151;251;28784;-70
2023/12/28 06:34:40;;;;;;;5.40;4.40;;;7.40;99.90;;;;;;473362;251;28823;-69
2023/12/28 06:36:43;;;;;;;5.33;4.23;;;7.40;99.90;;;;;;473481;251;28262;-68
2023/12/28 06:38:45;;;;;;;6.53;4.30;;;7.40;99.90;;;;;;485365;240;28656;-68
2023/12/28 06:40:46;;;;;;;7.57;5.07;;;7.40;99.90;;;;;;487414;244;28043;-69
2023/12/28 06:42:48;;;;;;;6.37;4.57;;;7.40;99.90;;;;;;487401;244;28717;-68
2023/12/28 06:44:49;;;;;;;15.40;5.10;;;7.40;99.90;;;;;;487350;244;28443;-67
2023/12/28 06:46:50;;;;;;;8.93;4.40;;;7.40;99.90;;;;;;487375;244;27885;-67
2023/12/28 06:48:55;;;;;;;8.33;5.00;;;7.40;99.90;;;;;;483922;237;27928;-68
2023/12/28 06:50:53;;;;;;;6.90;5.10;;;7.40;99.90;;;;;;483102;246;29001;-67
2023/12/28 06:52:55;;;;;;;5.17;4.70;;;7.40;99.90;;;;;;485868;245;28890;-69
2023/12/28 06:54:56;;;;;;;6.43;4.70;;;7.40;99.90;;;;;;483361;245;28929;-67
2023/12/28 06:59:07;;;;;;;6.30;4.97;;;7.30;99.90;;;;;;486082;241;28745;-68
2023/12/28 07:01:08;;;;;;;7.07;5.20;;;7.40;99.90;;;;;;486079;244;27447;-67
2023/12/28 07:03:09;;;;;;;7.50;5.50;;;7.40;99.90;;;;;;486080;244;28351;-68
2023/12/28 07:05:12;;;;;;;9.13;5.55;;;7.30;99.90;;;;;;485721;243;28444;-69
2023/12/28 07:07:12;;;;;;;12.90;6.13;;;7.40;99.90;;;;;;485453;237;27857;-68
2023/12/28 07:09:13;;;;;;;6.37;5.13;;;7.40;99.90;;;;;;467928;249;28080;-68
2023/12/28 07:11:14;;;;;;;8.70;5.80;;;7.40;99.90;;;;;;485066;244;28904;-67
2023/12/28 07:13:16;;;;;;;8.50;4.87;;;7.40;99.90;;;;;;486097;243;27847;-67
2023/12/28 07:15:17;;;;;;;6.20;5.30;;;7.40;99.90;;;;;;486562;244;27909;-68
2023/12/28 07:19:50;;;;;;;9.13;4.75;;;7.40;99.90;;;;;;472651;248;28790;-67
2023/12/28 07:21:51;;;;;;;9.93;5.47;;;7.40;99.90;;;;;;488511;243;27498;-67
2023/12/28 07:23:59;;;;;;;8.17;5.80;;;7.40;99.90;;;;;;488393;243;27783;-67
2023/12/28 07:25:57;;;;;;;9.52;5.20;;;7.40;99.90;;;;;;477410;248;28267;-68
2023/12/28 07:27:58;;;;;;;36.03;19.03;;;7.40;99.90;;;;;;487241;239;27561;-67
2023/12/28 07:30:00;;;;;;;12.30;8.33;;;7.40;99.90;;;;;;477999;247;27787;-67
2023/12/28 07:32:01;;;;;;;10.97;6.30;;;7.40;99.90;;;;;;478037;247;28601;-79
2023/12/28 07:34:03;;;;;;;10.40;6.50;;;7.90;99.90;;;;;;477929;249;28889;-74
2023/12/28 07:36:06;;;;;;;10.17;6.90;;;8.20;99.90;;;;;;478001;247;27506;-69
2023/12/28 07:38:05;;;;;;;7.33;4.97;;;8.20;99.90;;;;;;475326;245;28179;-69
2023/12/28 07:40:06;;;;;;;6.37;4.80;;;7.90;99.90;;;;;;480123;247;28075;-68
2023/12/28 07:42:08;;;;;;;7.20;5.30;;;7.80;99.90;;;;;;479991;248;27890;-70
2023/12/28 07:44:09;;;;;;;7.83;5.00;;;7.70;99.90;;;;;;480012;248;29116;-67
2023/12/28 07:46:10;;;;;;;7.67;5.60;;;7.60;99.90;;;;;;480136;248;28478;-69
2023/12/28 07:50:28;;;;;;;5.97;5.20;;;7.60;99.90;;;;;;469599;244;27583;-69
2023/12/28 07:52:30;;;;;;;6.03;5.40;;;7.50;99.90;;;;;;463812;254;28078;-70
2023/12/28 07:54:31;;;;;;;7.97;6.33;;;7.50;99.90;;;;;;480486;247;28002;-68
2023/12/28 07:56:32;;;;;;;8.30;4.97;;;7.50;99.90;;;;;;463489;253;28063;-69
2023/12/28 07:58:34;;;;;;;15.73;6.70;;;7.50;99.90;;;;;;466919;248;28999;-70
2023/12/28 08:00:35;;;;;;;6.90;5.30;;;7.50;99.90;;;;;;485039;244;28333;-69
2023/12/28 08:02:36;;;;;;;8.30;5.55;;;7.50;99.90;;;;;;485081;245;28477;-69
2023/12/28 08:04:37;;;;;;;9.87;5.70;;;7.50;99.90;;;;;;484844;245;27580;-69
2023/12/28 08:06:38;;;;;;;6.90;5.27;;;7.50;99.90;;;;;;484629;245;28096;-70
2023/12/28 08:08:40;;;;;;;6.93;5.80;;;7.50;99.90;;;;;;472016;237;27989;-69
2023/12/28 08:10:41;;;;;;;5.90;5.30;;;7.50;99.90;;;;;;473413;249;28507;-71
2023/12/28 08:12:43;;;;;;;6.93;5.37;;;7.50;99.90;;;;;;479389;246;28066;-69
2023/12/28 08:14:43;;;;;;;14.13;6.47;;;7.60;99.90;;;;;;478945;247;27951;-69
2023/12/28 08:16:45;;;;;;;6.00;5.23;;;7.60;99.90;;;;;;478893;247;28107;-69
2023/12/28 08:18:46;;;;;;;11.10;5.83;;;7.60;99.90;;;;;;472100;243;27631;-69
2023/12/28 08:20:47;;;;;;;8.23;6.00;;;7.60;99.90;;;;;;470664;252;28166;-69
2023/12/28 08:22:48;;;;;;;7.53;4.97;;;7.60;99.90;;;;;;480548;247;27918;-70
2023/12/28 08:24:50;;;;;;;7.90;6.27;;;7.60;99.90;;;;;;480545;246;27994;-69
2023/12/28 08:26:51;;;;;;;9.57;6.50;;;7.60;99.90;;;;;;480335;243;28520;-69
2023/12/28 08:31:02;;;;;;;9.20;6.13;;;7.60;99.90;;;;;;474490;244;29274;-70
2023/12/28 08:33:04;;;;;;;12.83;5.90;;;7.50;99.90;;;;;;474987;247;28890;-69
2023/12/28 08:35:06;;;;;;;7.90;5.43;;;7.50;99.90;;;;;;475009;250;27917;-69
2023/12/28 08:39:08;;;;;;;11.70;6.13;;;7.60;99.90;;;;;;487162;238;28470;-69
2023/12/28 08:41:10;;;;;;;8.20;5.83;;;7.60;99.90;;;;;;491182;240;27996;-69
2023/12/28 08:43:11;;;;;;;8.30;5.77;;;7.60;99.90;;;;;;502224;236;28000;-69
2023/12/28 08:45:12;;;;;;;6.33;5.33;;;7.60;99.90;;;;;;492809;241;27852;-69
2023/12/28 08:47:14;;;;;;;8.50;5.43;;;7.60;99.90;;;;;;492892;241;27791;-69
2023/12/28 08:49:15;;;;;;;7.10;5.53;;;7.60;99.90;;;;;;492883;241;27732;-69
2023/12/28 08:51:16;;;;;;;7.23;5.53;;;7.70;99.90;;;;;;492950;241;27722;-69
2023/12/28 08:53:17;;;;;;;8.27;5.20;;;7.70;99.90;;;;;;492892;241;27849;-69
2023/12/28 08:55:18;;;;;;;7.30;5.73;;;7.70;99.90;;;;;;492925;241;28117;-69
2023/12/28 08:59:30;;;;;;;10.70;7.20;;;7.70;99.90;;;;;;469345;252;27659;-69
2023/12/28 09:01:31;;;;;;;11.90;6.13;;;7.70;99.90;;;;;;470115;253;29417;-69
2023/12/28 09:03:32;;;;;;;6.07;5.17;;;7.70;99.90;;;;;;465690;250;28668;-69
2023/12/28 09:05:33;;;;;;;6.97;6.37;;;7.70;99.90;;;;;;479451;248;28376;-69
2023/12/28 09:07:36;;;;;;;8.83;5.83;;;7.70;99.90;;;;;;478560;239;28589;-69
2023/12/28 09:09:36;;;;;;;7.20;5.70;;;7.70;99.90;;;;;;496944;239;28316;-69
2023/12/28 09:11:37;;;;;;;10.10;6.00;;;7.60;99.90;;;;;;496985;239;28029;-70
2023/12/28 09:13:38;;;;;;;11.30;5.10;;;7.70;99.90;;;;;;496796;239;27884;-69
2023/12/28 09:15:40;;;;;;;7.87;6.17;;;7.70;99.90;;;;;;497000;239;27557;-69
2023/12/28 09:17:41;;;;;;;7.60;5.90;;;7.70;99.90;;;;;;487973;235;28596;-69
2023/12/28 09:19:42;;;;;;;10.50;6.00;;;7.70;99.90;;;;;;460007;256;27937;-68
2023/12/28 09:21:43;;;;;;;7.53;5.80;;;7.70;99.90;;;;;;459955;257;27991;-69
2023/12/28 09:23:45;;;;;;;9.53;6.07;;;7.70;99.90;;;;;;459719;257;28059;-70
2023/12/28 09:25:46;;;;;;;9.13;6.10;;;7.70;99.90;;;;;;460016;256;27817;-69
2023/12/28 09:27:47;;;;;;;9.93;5.60;;;7.70;99.90;;;;;;460007;257;27980;-70
2023/12/28 09:29:48;;;;;;;8.07;5.20;;;7.70;99.90;;;;;;459989;257;27899;-69
2023/12/28 09:31:49;;;;;;;15.50;6.90;;;7.70;99.90;;;;;;459959;257;27931;-69
2023/12/28 09:33:52;;;;;;;6.67;5.80;;;7.80;99.90;;;;;;459912;257;27878;-69
2023/12/28 09:35:53;;;;;;;14.27;7.30;;;7.90;99.90;;;;;;460103;257;28255;-70
2023/12/28 09:37:54;;;;;;;10.83;6.63;;;7.90;99.90;;;;;;466991;243;28447;-70
2023/12/28 09:39:55;;;;;;;8.53;6.67;;;7.90;99.90;;;;;;476221;243;29490;-69
2023/12/28 09:41:56;;;;;;;6.80;5.40;;;8.00;99.90;;;;;;469097;250;28506;-70
2023/12/28 09:43:57;;;;;;;11.63;6.90;;;7.90;99.90;;;;;;467536;253;27967;-75
2023/12/28 09:45:58;;;;;;;10.30;6.20;;;8.00;99.90;;;;;;471435;249;27790;-73
2023/12/28 09:48:09;;;;;;;9.13;5.13;;;8.00;99.90;;;;;;470410;243;27972;-73
2023/12/28 09:50:10;;;;;;;6.47;5.47;;;8.10;99.90;;;;;;454888;261;28000;-72
2023/12/28 09:52:11;;;;;;;6.20;5.30;;;8.10;99.90;;;;;;455027;260;28076;-75
2023/12/28 09:54:12;;;;;;;10.37;5.60;;;8.10;99.90;;;;;;455058;260;28437;-74
2023/12/28 09:56:14;;;;;;;9.30;6.13;;;8.10;99.90;;;;;;457710;260;28736;-72
2023/12/28 09:58:15;;;;;;;11.67;5.33;;;8.10;99.90;;;;;;457652;259;28394;-73
2023/12/28 10:00:16;;;;;;;9.13;5.50;;;8.10;99.90;;;;;;456575;259;28713;-74
2023/12/28 10:02:17;;;;;;;8.03;7.13;;;8.10;99.90;;;;;;456526;260;28520;-76
2023/12/28 10:04:20;;;;;;;9.90;7.13;;;8.10;99.90;;;;;;458320;254;28154;-73
2023/12/28 10:06:21;;;;;;;7.20;4.70;;;8.20;99.90;;;;;;463118;256;27825;-74
2023/12/28 10:10:34;;;;;;;7.77;5.63;;;8.30;99.90;;;;;;479041;247;28113;-74
2023/12/28 10:12:35;;;;;;;7.67;5.30;;;8.20;99.90;;;;;;489028;243;28414;-76
2023/12/28 10:14:37;;;;;;;7.00;4.73;;;8.20;99.90;;;;;;489144;241;28022;-73
2023/12/28 10:16:38;;;;;;;10.73;5.20;;;8.20;99.90;;;;;;489181;241;27988;-74
2023/12/28 10:18:39;;;;;;;5.60;4.90;;;8.20;99.90;;;;;;479576;240;28051;-75
2023/12/28 10:20:40;;;;;;;7.13;4.53;;;8.30;99.90;;;;;;495922;238;28317;-75
2023/12/28 10:22:42;;;;;;;4.47;4.07;;;8.30;99.90;;;;;;494389;240;28378;-73
2023/12/28 10:24:43;;;;;;;7.87;5.40;;;8.30;99.90;;;;;;494348;240;28260;-73
2023/12/28 10:26:44;;;;;;;8.30;5.00;;;8.20;99.90;;;;;;494410;238;28255;-75
2023/12/28 10:30:51;;;;;;;5.03;4.63;;;8.20;99.90;;;;;;483966;243;27958;-76
2023/12/28 10:32:53;;;;;;;6.83;4.70;;;8.20;99.90;;;;;;482961;245;28087;-74
2023/12/28 10:34:55;;;;;;;8.70;5.07;;;8.20;99.90;;;;;;488958;243;28384;-74
2023/12/28 10:39:17;;;;;;;7.13;4.73;;;8.20;99.90;;;;;;484338;244;28084;-71
2023/12/28 10:41:18;;;;;;;4.87;4.30;;;8.20;99.90;;;;;;484800;245;27661;-75
2023/12/28 10:43:19;;;;;;;6.17;4.40;;;8.20;99.90;;;;;;484548;243;27823;-73
2023/12/28 10:45:23;;;;;;;5.57;4.53;;;8.20;99.90;;;;;;484631;244;27762;-75
2023/12/28 10:49:41;;;;;;;5.70;4.50;;;8.20;99.90;;;;;;486814;240;28338;-73
2023/12/28 10:51:48;;;;;;;5.93;4.07;;;8.20;99.90;;;;;;494349;240;28433;-75
2023/12/28 10:53:51;;;;;;;7.03;4.37;;;8.20;99.90;;;;;;481895;246;28922;-71
2023/12/28 10:55:52;;;;;;;6.00;4.20;;;8.20;99.90;;;;;;479177;248;28168;-73
2023/12/28 10:57:55;;;;;;;4.07;3.67;;;8.20;99.90;;;;;;482217;235;27576;-72
2023/12/28 10:59:55;;;;;;;4.70;3.93;;;8.20;99.90;;;;;;482620;245;28064;-73